Time;durP1;ratioP1;P1;durP2;ratioP2;P2;SDS_P1;SDS_P2;PMS_P1;PMS_P2;Temp;Humidity;BMP_temperature;BMP_pressure;BME280_temperature;BME280_humidity;BME280_pressure;Samples;Min_cycle;Max_cycle;Signal;HPM_P1;HPM_P2
2023/04/05 07:01:23;;;;;;;0.10;0.10;;;17.00;99.90;22.80;102240.00;;;;6372179;22;20175;-72
2023/04/05 07:03:51;;;;;;;0.13;0.13;;;18.00;99.90;23.50;102216.00;;;;6318383;22;20239;-72
2023/04/05 07:06:17;;;;;;;3.00;1.23;;;18.90;99.90;24.30;102199.00;;;;6344812;22;20551;-72
2023/04/05 07:09:24;;;;;;;1.10;1.10;;;19.70;99.90;24.80;102190.00;;;;6318035;22;20192;-72
2023/04/05 07:11:50;;;;;;;0.50;0.50;;;20.30;99.90;24.60;102184.00;;;;6372292;22;20572;-72
2023/04/05 07:14:55;;;;;;;0.95;0.90;;;20.50;99.90;24.80;102171.00;;;;6344841;22;20146;-72
2023/04/05 07:17:23;;;;;;;0.10;0.10;;;20.60;99.90;21.80;102188.00;;;;6318422;22;20481;-72
2023/04/05 07:19:49;;;;;;;0.20;0.20;;;19.90;99.50;21.50;102179.00;;;;6317886;22;20193;-72
2023/04/05 07:22:43;;;;;;;0.20;0.20;;;18.70;99.90;18.40;102191.00;;;;6344204;22;20159;-72
2023/04/05 07:25:09;;;;;;;0.17;0.17;;;16.50;99.90;21.20;102170.00;;;;6370776;22;20480;-72
2023/04/05 07:27:40;;;;;;;0.10;0.10;;;16.80;99.90;22.80;102168.00;;;;6343921;22;20212;-72
2023/04/05 07:30:12;;;;;;;0.13;0.13;;;18.20;99.90;23.40;102161.00;;;;6317543;22;20155;-72
2023/04/05 07:33:04;;;;;;;1.17;1.17;;;18.90;99.90;22.00;102136.00;;;;6318182;22;20191;-72
2023/04/05 07:35:30;;;;;;;2.08;1.35;;;18.80;99.90;22.70;102159.00;;;;6342875;22;20158;-65
2023/04/05 07:38:15;;;;;;;0.20;0.20;;;18.80;99.80;24.00;102156.00;;;;6343798;22;20140;-83
2023/04/05 07:40:41;;;;;;;0.75;0.75;;;19.50;99.90;22.80;102160.00;;;;6317768;22;20162;-80
2023/04/05 07:43:07;;;;;;;0.13;0.13;;;19.70;99.40;23.10;102158.00;;;;6343687;22;20191;-81
2023/04/05 07:46:05;;;;;;;0.10;0.10;;;19.40;99.30;24.80;102128.00;;;;6343821;22;20140;-77
2023/04/05 07:48:31;;;;;;;0.93;0.93;;;20.30;99.20;23.90;102157.00;;;;6371624;22;20146;-82
2023/04/05 07:51:06;;;;;;;0.52;0.47;;;20.60;97.10;18.60;102193.00;;;;6316541;22;20166;-83
2023/04/05 07:53:35;;;;;;;0.20;0.20;;;17.80;97.20;17.80;102193.00;;;;6317644;22;20207;-83
2023/04/05 07:56:11;;;;;;;0.10;0.10;;;16.10;99.00;19.30;102175.00;;;;6343493;22;20151;-82
2023/04/05 07:58:43;;;;;;;0.20;0.20;;;15.50;99.90;17.60;102160.00;;;;6343394;22;20674;-83
2023/04/05 08:01:12;;;;;;;0.95;0.95;;;15.00;99.90;20.20;102179.00;;;;6289049;22;20618;-81
2023/04/05 08:03:38;;;;;;;0.73;0.73;;;16.00;99.90;20.00;102181.00;;;;6312492;22;20647;-80
2023/04/05 08:06:16;;;;;;;0.10;0.10;;;16.50;99.80;22.20;102151.00;;;;6286400;22;20179;-81
2023/04/05 08:08:45;;;;;;;0.15;0.15;;;17.70;99.50;21.30;102181.00;;;;6312779;22;20150;-81
2023/04/05 08:11:29;;;;;;;3.15;1.73;;;18.20;98.70;15.50;102200.00;;;;6312468;22;20151;-79
2023/04/05 08:14:32;;;;;;;3.25;2.47;;;15.30;99.90;15.90;102197.00;;;;6312656;22;20156;-79
2023/04/05 08:17:33;;;;;;;0.77;0.77;;;13.70;99.90;17.00;102185.00;;;;6339139;22;20145;-81
2023/04/05 08:20:07;;;;;;;0.40;0.40;;;13.10;99.90;17.30;102183.00;;;;6312249;22;20163;-81
2023/04/05 08:22:35;;;;;;;2.47;0.80;;;14.20;99.90;15.20;102181.00;;;;6285805;22;20220;-81
2023/04/05 08:25:19;;;;;;;0.47;0.47;;;13.10;99.90;14.70;102194.00;;;;6312676;22;20166;-80
2023/04/05 08:27:45;;;;;;;0.40;0.40;;;12.30;99.90;15.80;102192.00;;;;6286699;22;20152;-81
2023/04/05 08:30:12;;;;;;;1.03;1.03;;;12.80;99.90;18.00;102143.00;;;;6285897;22;20169;-79
2023/04/05 08:32:37;;;;;;;4.47;3.47;;;14.00;99.90;16.80;102191.00;;;;6311592;22;20145;-80
2023/04/05 08:35:04;;;;;;;1.70;1.60;;;14.90;99.90;16.50;102198.00;;;;6286320;22;20158;-79
2023/04/05 08:37:39;;;;;;;1.23;0.70;;;14.00;99.90;18.10;102183.00;;;;6312109;22;20238;-81
2023/04/05 08:40:08;;;;;;;1.80;1.70;;;14.50;99.90;16.30;102195.00;;;;6312063;22;20137;-80
2023/04/05 08:43:11;;;;;;;5.17;3.13;;;14.30;99.90;16.10;102193.00;;;;6312113;22;20618;-78
2023/04/05 08:45:49;;;;;;;0.20;0.20;;;13.90;99.50;18.20;102176.00;;;;6339692;22;20143;-76
2023/04/05 08:48:23;;;;;;;0.10;0.10;;;14.50;99.90;19.80;102150.00;;;;6312227;22;20141;-79
2023/04/05 08:50:55;;;;;;;1.43;1.40;;;15.90;99.90;19.90;102140.00;;;;6312216;22;20228;-80
2023/04/05 08:53:24;;;;;;;0.40;0.40;;;16.40;99.60;21.00;102164.00;;;;6312474;22;20157;-80
2023/04/05 08:56:11;;;;;;;3.13;2.83;;;17.20;99.90;15.40;102158.00;;;;6311915;22;20170;-81
2023/04/05 08:59:02;;;;;;;3.77;2.93;;;14.30;99.90;16.30;102193.00;;;;6312283;22;20169;-83
2023/04/05 09:01:33;;;;;;;4.10;2.20;;;13.80;99.90;14.90;102194.00;;;;6311502;22;20139;-81
2023/04/05 09:04:25;;;;;;;1.67;1.40;;;12.70;99.90;17.70;102180.00;;;;6286827;22;20215;-82
2023/04/05 09:06:55;;;;;;;0.20;0.20;;;13.70;99.90;18.80;102175.00;;;;6286828;22;20160;-79
2023/04/05 09:09:24;;;;;;;0.40;0.40;;;15.10;99.90;18.70;102177.00;;;;6312143;22;20153;-81
2023/04/05 09:12:00;;;;;;;6.67;6.10;;;15.60;99.90;18.80;102168.00;;;;6285158;22;20163;-81
2023/04/05 09:14:27;;;;;;;0.57;0.57;;;15.80;99.90;19.60;102168.00;;;;6311853;22;20137;-77
2023/04/05 09:16:54;;;;;;;0.87;0.87;;;16.40;99.10;19.80;102141.00;;;;6284665;22;20159;-81
2023/04/05 09:19:20;;;;;;;0.10;0.10;;;16.40;99.40;19.10;102155.00;;;;6286028;22;20185;-81
2023/04/05 09:22:02;;;;;;;0.10;0.10;;;16.50;99.00;20.60;102150.00;;;;6311431;22;20142;-82
2023/04/05 09:24:43;;;;;;;0.10;0.10;;;17.00;98.40;21.80;102150.00;;;;6311648;22;20451;-81
2023/04/05 09:27:14;;;;;;;1.30;1.20;;;17.80;97.90;20.10;102158.00;;;;6285959;22;20179;-82
2023/04/05 09:29:50;;;;;;;4.00;1.70;;;17.30;98.00;21.90;102141.00;;;;6311273;22;20194;-82
2023/04/05 09:32:24;;;;;;;1.40;0.37;;;18.10;97.90;22.10;102144.00;;;;6311524;22;20185;-81
2023/04/05 09:34:59;;;;;;;0.20;0.20;;;18.50;96.90;21.30;102146.00;;;;6285962;22;20158;-81
2023/04/05 09:37:28;;;;;;;0.70;0.57;;;18.30;96.60;17.80;102135.00;;;;6312131;22;20142;-81
2023/04/05 09:40:06;;;;;;;1.20;1.20;;;17.10;96.70;20.40;102144.00;;;;6339581;22;20145;-82
2023/04/05 09:42:56;;;;;;;2.83;2.63;;;17.00;97.80;20.80;102146.00;;;;6286203;22;20243;-79
2023/04/05 09:45:31;;;;;;;2.87;2.67;;;17.30;96.70;20.80;102122.00;;;;6311492;22;20224;-81
2023/04/05 09:48:20;;;;;;;0.10;0.10;;;17.60;96.50;21.00;102141.00;;;;6311742;22;20139;-80
2023/04/05 09:51:03;;;;;;;4.70;1.47;;;17.60;96.50;19.40;102116.00;;;;6339596;22;20165;-80
2023/04/05 09:53:58;;;;;;;2.83;1.57;;;17.60;96.30;20.70;102135.00;;;;6310990;22;20491;-81
2023/04/05 09:56:29;;;;;;;1.73;1.50;;;17.40;96.50;19.60;102144.00;;;;6285157;22;20185;-81
2023/04/05 09:59:08;;;;;;;1.73;1.63;;;17.40;96.10;19.60;102149.00;;;;6339304;22;20180;-81
2023/04/05 10:01:34;;;;;;;0.10;0.10;;;17.00;96.40;19.40;102147.00;;;;6370098;22;20469;-81
2023/04/05 10:04:01;;;;;;;1.10;1.03;;;16.90;97.30;17.90;102142.00;;;;6316371;22;20289;-81
2023/04/05 10:06:39;;;;;;;0.80;0.80;;;15.90;98.50;20.30;102131.00;;;;6370518;22;20147;-81
2023/04/05 10:09:16;;;;;;;0.53;0.53;;;16.60;98.00;18.60;102144.00;;;;6342409;22;20164;-79
2023/04/05 10:11:44;;;;;;;3.17;1.90;;;16.00;98.20;19.00;102143.00;;;;6317520;22;20524;-79
2023/04/05 10:14:19;;;;;;;0.37;0.37;;;16.30;97.80;17.80;102146.00;;;;6315935;22;20684;-79
2023/04/05 10:17:14;;;;;;;4.23;1.60;;;15.30;98.70;20.20;102122.00;;;;6342322;22;20140;-79
2023/04/05 10:20:04;;;;;;;3.80;3.50;;;16.30;98.20;17.20;102148.00;;;;6298957;22;20609;-80
2023/04/05 10:33:58;;;;;;;1.33;1.03;;;14.50;98.70;14.00;102179.00;;;;5090439;28;20561;-76
2023/04/05 10:36:49;;;;;;;1.03;1.03;;;13.10;99.70;16.30;102149.00;;;;5069095;28;20206;-75
2023/04/05 10:39:39;;;;;;;0.37;0.37;;;13.00;99.90;18.80;102110.00;;;;5071616;28;20187;-68
2023/04/05 10:42:27;;;;;;;3.50;1.50;;;14.70;99.90;18.80;102107.00;;;;5069834;28;20666;-77
2023/04/05 10:45:23;;;;;;;3.20;1.50;;;15.80;98.60;18.90;102127.00;;;;5052393;28;20196;-79
2023/04/05 10:48:46;;;;;;;0.87;0.87;;;15.90;98.30;20.60;102115.00;;;;5064529;28;20264;-79
2023/04/05 10:51:15;;;;;;;6.60;2.27;;;16.90;97.90;20.60;102089.00;;;;5032333;28;20201;-77
2023/04/05 10:53:41;;;;;;;0.10;0.10;;;17.40;98.90;19.90;102112.00;;;;5067927;28;20679;-78
2023/04/05 10:56:08;;;;;;;1.27;1.23;;;17.40;96.90;21.20;102026.00;;;;5053011;28;20189;-77
2023/04/05 10:58:50;;;;;;;1.30;1.20;;;17.70;97.10;18.60;102111.00;;;;5067527;28;20210;-79
2023/04/05 11:01:17;;;;;;;0.20;0.20;;;16.60;97.60;19.70;102107.00;;;;5068536;28;20191;-77
2023/04/05 11:03:53;;;;;;;0.10;0.10;;;16.70;97.70;21.50;102069.00;;;;5051659;28;20199;-78
2023/04/05 11:06:22;;;;;;;1.47;1.37;;;17.40;97.80;19.30;102106.00;;;;5068102;28;20264;-78
2023/04/05 11:08:57;;;;;;;0.57;0.57;;;17.20;98.40;17.50;102109.00;;;;5067949;28;20188;-77
2023/04/05 11:11:25;;;;;;;1.40;1.40;;;16.10;97.40;16.20;102126.00;;;;5060858;28;20206;-77
2023/04/05 11:13:56;;;;;;;0.13;0.13;;;14.90;98.00;17.30;102108.00;;;;5067361;28;20645;-78
2023/04/05 11:16:38;;;;;;;0.10;0.10;;;14.60;98.70;19.60;102063.00;;;;5051932;28;20545;-78
2023/04/05 11:19:09;;;;;;;0.93;0.57;;;15.80;98.40;19.30;102078.00;;;;5064928;28;20181;-78
2023/04/05 11:21:37;;;;;;;0.53;0.53;;;16.30;98.40;19.80;102090.00;;;;5067904;28;20186;-77
2023/04/05 11:24:32;;;;;;;0.10;0.10;;;16.60;98.10;20.50;102086.00;;;;5068354;28;20174;-77
2023/04/05 11:27:13;;;;;;;8.17;3.77;;;17.20;97.70;16.90;102106.00;;;;5062864;28;20217;-73
2023/04/05 11:30:47;;;;;;;2.20;1.57;;;16.20;97.70;14.50;102126.00;;;;5067898;28;20637;-78
2023/04/05 11:33:53;;;;;;;6.07;4.17;;;14.70;98.30;16.10;102106.00;;;;5067845;28;20571;-76
2023/04/05 11:37:18;;;;;;;3.70;3.13;;;13.90;99.30;17.40;102084.00;;;;5042296;28;20196;-78
2023/04/05 11:39:44;;;;;;;0.20;0.20;;;14.20;99.40;19.60;102078.00;;;;5038606;28;20208;-66
2023/04/05 11:42:19;;;;;;;1.73;1.63;;;15.50;99.30;20.60;102060.00;;;;5068722;28;20223;-77
2023/04/05 11:45:14;;;;;;;0.30;0.30;;;16.80;98.50;19.10;102075.00;;;;5021392;28;20197;-78
2023/04/05 11:47:41;;;;;;;0.20;0.20;;;16.20;97.90;19.60;102057.00;;;;5035002;28;20665;-77
2023/04/05 11:50:09;;;;;;;2.03;1.90;;;16.60;98.50;20.10;102059.00;;;;5054909;28;20218;-76
2023/04/05 11:52:42;;;;;;;2.73;1.47;;;16.80;97.40;19.70;102049.00;;;;5054523;28;20201;-78
2023/04/05 11:55:14;;;;;;;1.20;1.20;;;16.90;97.20;21.00;102043.00;;;;5054308;28;20192;-73
2023/04/05 11:58:09;;;;;;;4.70;2.63;;;17.30;96.80;20.30;102045.00;;;;5055418;28;20218;-76
2023/04/05 12:00:44;;;;;;;2.83;1.97;;;17.20;96.20;19.20;102064.00;;;;5037401;28;20223;-76
2023/04/05 12:03:12;;;;;;;1.30;1.30;;;16.90;96.10;20.10;102012.00;;;;5053850;28;20249;-76
2023/04/05 12:05:58;;;;;;;4.10;3.90;;;16.70;96.50;18.70;102050.00;;;;5053946;28;20210;-76
2023/04/05 12:08:52;;;;;;;1.30;1.20;;;16.50;96.70;18.30;102059.00;;;;5054315;28;20186;-75
2023/04/05 12:11:33;;;;;;;0.57;0.57;;;16.00;97.00;19.80;102044.00;;;;5029495;28;20192;-78
2023/04/05 12:14:06;;;;;;;0.37;0.37;;;16.10;96.80;20.30;102024.00;;;;5037542;28;20187;-80
2023/04/05 12:16:49;;;;;;;0.73;0.73;;;16.40;96.30;19.30;102035.00;;;;5042183;28;20228;-71
2023/04/05 12:19:21;;;;;;;2.77;2.53;;;16.30;96.50;18.80;102045.00;;;;5054953;28;20553;-69
2023/04/05 12:21:47;;;;;;;4.03;2.33;;;16.00;96.70;19.50;102039.00;;;;5041063;28;20186;-78
2023/04/05 12:24:21;;;;;;;1.80;1.70;;;16.10;96.70;18.30;102052.00;;;;5037766;28;20183;-74
2023/04/05 12:26:55;;;;;;;0.37;0.37;;;15.90;96.90;19.20;102043.00;;;;5040652;28;20667;-67
2023/04/05 12:29:29;;;;;;;0.30;0.30;;;15.60;97.00;18.80;102030.00;;;;5053770;28;20188;-72
2023/04/05 12:31:56;;;;;;;2.50;0.90;;;15.80;97.40;18.90;102032.00;;;;5045095;28;20217;-68
2023/04/05 12:34:27;;;;;;;0.43;0.43;;;15.90;97.50;18.90;102032.00;;;;5037059;28;20254;-70
2023/04/05 12:37:02;;;;;;;0.20;0.20;;;15.90;97.70;18.30;102032.00;;;;5054417;28;20269;-72
2023/04/05 12:39:32;;;;;;;6.27;4.90;;;15.70;97.50;19.30;102027.00;;;;5036939;28;20188;-79
2023/04/05 12:41:59;;;;;;;1.10;1.07;;;16.00;96.90;17.70;102030.00;;;;5052920;28;20201;-72
2023/04/05 12:45:10;;;;;;;2.20;1.80;;;15.00;97.60;17.60;102028.00;;;;5054670;28;20189;-70
2023/04/05 12:47:56;;;;;;;0.43;0.37;;;15.10;97.50;18.00;102025.00;;;;5053198;28;20192;-70
2023/04/05 12:50:30;;;;;;;0.20;0.20;;;15.00;97.80;17.90;102015.00;;;;5053226;28;20787;-70
2023/04/05 12:53:07;;;;;;;0.47;0.33;;;14.90;98.30;17.90;102020.00;;;;5041599;28;20204;-69
2023/04/05 12:55:44;;;;;;;4.80;0.60;;;15.00;97.70;17.80;102008.00;;;;5047982;28;20189;-69
2023/04/05 12:58:20;;;;;;;0.50;0.50;;;14.90;97.50;16.50;102023.00;;;;5053111;28;20188;-70
2023/04/05 13:00:46;;;;;;;2.37;2.20;;;14.40;98.10;17.10;102007.00;;;;5036458;28;20642;-70
2023/04/05 13:03:19;;;;;;;2.37;1.40;;;14.00;98.70;16.70;101982.00;;;;5035756;28;20200;-70
2023/04/05 13:05:53;;;;;;;0.10;0.10;;;14.00;98.20;16.00;102021.00;;;;5053993;28;20190;-70
2023/04/05 13:08:26;;;;;;;0.63;0.63;;;13.50;98.50;16.90;102002.00;;;;5052074;28;20187;-71
2023/04/05 13:11:07;;;;;;;0.30;0.30;;;14.10;99.30;18.60;102004.00;;;;5053041;28;20220;-71
2023/04/05 13:13:41;;;;;;;3.50;0.87;;;14.70;98.60;19.00;101976.00;;;;5039354;28;20206;-70
2023/04/05 13:16:16;;;;;;;0.70;0.70;;;15.30;98.10;18.60;101994.00;;;;5048481;28;20275;-71
2023/04/05 13:18:48;;;;;;;5.37;3.13;;;15.50;98.30;17.10;102004.00;;;;5045983;28;20248;-71
2023/04/05 13:21:28;;;;;;;0.17;0.17;;;15.10;97.80;17.70;101995.00;;;;5052570;28;20563;-70
2023/04/05 13:23:59;;;;;;;0.10;0.10;;;14.70;98.60;17.00;102001.00;;;;5037064;28;20626;-70
2023/04/05 13:26:34;;;;;;;14.03;4.67;;;14.60;98.30;16.70;102000.00;;;;5035767;28;20183;-70
2023/04/05 13:29:11;;;;;;;1.50;1.40;;;14.30;97.90;16.80;101996.00;;;;5044994;28;20193;-71
2023/04/05 13:31:37;;;;;;;1.07;0.63;;;14.10;98.10;17.50;101986.00;;;;5037143;28;20611;-71
2023/04/05 13:34:08;;;;;;;3.83;2.53;;;14.60;98.30;18.60;101981.00;;;;5025678;28;20177;-71
2023/04/05 13:36:37;;;;;;;6.23;4.93;;;15.00;97.90;18.40;101980.00;;;;5053021;28;20767;-71
2023/04/05 13:39:11;;;;;;;1.17;1.17;;;15.40;97.70;18.90;101968.00;;;;5035537;28;20239;-70
2023/04/05 13:41:56;;;;;;;0.67;0.67;;;15.40;97.90;18.40;101976.00;;;;5035795;28;20190;-71
2023/04/05 13:44:33;;;;;;;1.03;1.03;;;15.40;97.20;16.60;101980.00;;;;5052782;28;20185;-71
2023/04/05 13:47:02;;;;;;;1.33;1.13;;;15.00;96.80;15.40;101989.00;;;;5042337;28;20194;-70
2023/04/05 13:49:54;;;;;;;1.83;0.93;;;13.90;97.80;16.00;101988.00;;;;5051695;28;20205;-71
2023/04/05 13:52:24;;;;;;;5.53;3.27;;;13.70;98.20;16.50;101976.00;;;;5048601;28;20206;-69
2023/04/05 13:54:50;;;;;;;2.03;1.93;;;14.10;97.40;15.50;101948.00;;;;5037602;28;20267;-68
2023/04/05 13:57:19;;;;;;;1.90;0.87;;;13.60;97.40;15.90;101970.00;;;;5034712;28;20286;-69
2023/04/05 13:59:45;;;;;;;0.53;0.53;;;13.60;97.30;16.10;101965.00;;;;5039366;28;20230;-69
2023/04/05 14:02:11;;;;;;;0.20;0.20;;;13.60;97.40;17.90;101954.00;;;;5049997;28;20222;-69
2023/04/05 14:04:42;;;;;;;1.40;1.20;;;14.20;98.20;16.50;101882.00;;;;5035369;28;20214;-69
2023/04/05 14:07:11;;;;;;;0.27;0.27;;;14.10;97.60;18.60;101951.00;;;;5052616;28;20191;-69
2023/04/05 14:09:37;;;;;;;0.77;0.77;;;14.80;97.40;16.40;101958.00;;;;5031913;28;20595;-69
2023/04/05 14:12:06;;;;;;;0.30;0.30;;;14.50;96.40;18.50;101936.00;;;;5047064;28;20263;-69
2023/04/05 14:14:34;;;;;;;0.93;0.93;;;14.80;97.50;18.90;101940.00;;;;5036358;28;20183;-70
2023/04/05 14:17:11;;;;;;;0.10;0.10;;;15.30;96.40;18.70;101932.00;;;;5034347;28;20194;-69
2023/04/05 14:19:40;;;;;;;2.77;2.67;;;15.30;96.50;18.60;101933.00;;;;5035577;28;20637;-70
2023/04/05 14:22:11;;;;;;;0.10;0.10;;;15.40;96.90;18.10;101932.00;;;;5053128;28;20184;-70
2023/04/05 14:24:40;;;;;;;5.37;2.77;;;15.00;96.40;18.20;101932.00;;;;5040833;28;20294;-70
2023/04/05 14:27:09;;;;;;;12.87;4.50;;;15.20;96.10;16.90;101936.00;;;;5048228;28;20261;-70
2023/04/05 14:29:38;;;;;;;0.27;0.27;;;14.40;96.10;18.60;101910.00;;;;5050428;28;20265;-71
2023/04/05 14:32:07;;;;;;;0.10;0.10;;;14.80;96.30;18.30;101900.00;;;;5051356;28;20551;-70
2023/04/05 14:34:33;;;;;;;0.20;0.20;;;15.10;95.50;17.60;101906.00;;;;5051474;28;20210;-70
2023/04/05 14:37:05;;;;;;;0.33;0.33;;;14.60;96.10;18.50;101900.00;;;;5034979;28;20217;-71
2023/04/05 14:39:51;;;;;;;2.67;0.77;;;15.10;96.20;18.10;101907.00;;;;5052757;28;20183;-61
2023/04/05 14:42:43;;;;;;;2.47;2.27;;;15.20;95.70;17.60;101898.00;;;;5052755;28;20218;-71
2023/04/05 14:45:33;;;;;;;0.30;0.30;;;15.00;96.10;15.80;101918.00;;;;5037123;28;20265;-70
2023/04/05 14:48:29;;;;;;;0.73;0.73;;;13.80;96.20;16.90;101870.00;;;;5059448;28;20291;-69
2023/04/05 14:51:25;;;;;;;0.20;0.20;;;13.90;96.40;18.30;101883.00;;;;5058896;28;20207;-71
2023/04/05 14:54:23;;;;;;;0.10;0.10;;;14.60;96.20;18.60;101875.00;;;;4981173;28;20618;-69
2023/04/05 14:57:01;;;;;;;2.23;2.03;;;14.90;95.90;18.70;101877.00;;;;5058036;28;20711;-69
2023/04/05 14:59:36;;;;;;;0.10;0.10;;;15.10;95.90;17.90;101885.00;;;;5059119;28;20187;-70
2023/04/05 15:02:56;;;;;;;3.07;2.33;;;15.00;95.60;18.60;101871.00;;;;5058322;28;20189;-69
2023/04/05 15:08:35;;;;;;;0.10;0.10;;;15.00;95.20;16.90;101881.00;;;;5053193;28;20672;-69
2023/04/05 15:11:37;;;;;;;2.22;0.82;;;14.40;96.00;16.50;101881.00;;;;5058346;28;20435;-69
2023/04/05 15:14:34;;;;;;;3.80;3.53;;;13.90;96.10;15.40;101881.00;;;;5016350;28;20253;-69
2023/04/05 15:17:26;;;;;;;0.10;0.10;;;13.50;96.30;17.30;101829.00;;;;5053350;28;20721;-70
2023/04/05 15:20:52;;;;;;;1.90;0.50;;;13.80;96.50;17.30;101860.00;;;;5061630;28;20261;-71
2023/04/05 15:23:23;;;;;;;2.40;2.33;;;13.90;96.70;17.80;101842.00;;;;5020410;28;20212;-69
2023/04/05 15:25:58;;;;;;;0.83;0.83;;;14.30;96.00;18.10;101856.00;;;;5020666;28;20187;-70
2023/04/05 15:28:42;;;;;;;3.43;2.50;;;14.50;95.90;17.40;101858.00;;;;5021130;28;20185;-69
2023/04/05 15:31:29;;;;;;;2.67;2.47;;;14.70;95.80;17.70;101852.00;;;;5004019;28;20215;-70
2023/04/05 15:34:16;;;;;;;0.10;0.10;;;14.60;95.90;18.70;101807.00;;;;5021026;28;20258;-72
2023/04/05 15:37:10;;;;;;;0.80;0.80;;;14.90;96.20;19.20;101831.00;;;;5021000;28;20192;-73
2023/04/05 15:39:45;;;;;;;3.93;3.57;;;15.30;96.20;17.70;101855.00;;;;5004356;28;20208;-68
2023/04/05 15:42:14;;;;;;;10.20;5.47;;;15.10;96.40;17.20;101852.00;;;;5003557;28;20194;-67
2023/04/05 15:44:42;;;;;;;0.37;0.37;;;14.60;96.70;16.90;101850.00;;;;4980962;28;20768;-67
2023/04/05 15:47:11;;;;;;;0.10;0.10;;;14.10;96.40;17.60;101836.00;;;;5043379;28;20200;-67
2023/04/05 15:49:47;;;;;;;3.50;2.23;;;14.30;96.50;16.90;101848.00;;;;5054485;28;20202;-67
2023/04/05 15:52:42;;;;;;;2.30;2.10;;;14.30;97.10;16.80;101832.00;;;;5054020;28;20202;-68
2023/04/05 15:55:11;;;;;;;0.10;0.10;;;14.20;97.40;18.30;101799.00;;;;5058689;28;20206;-67
2023/04/05 15:58:07;;;;;;;0.20;0.20;;;14.70;97.30;18.40;101799.00;;;;5044630;28;20185;-68
2023/04/05 16:00:40;;;;;;;0.10;0.10;;;15.00;96.40;18.70;101821.00;;;;5030462;28;20188;-68
2023/04/05 16:03:36;;;;;;;0.10;0.10;;;15.10;96.30;19.40;101791.00;;;;5060919;28;20197;-68
2023/04/05 16:06:10;;;;;;;1.17;0.97;;;15.60;96.00;18.40;101822.00;;;;5060898;28;20186;-73
2023/04/05 16:08:39;;;;;;;0.87;0.87;;;15.30;95.80;18.30;101797.00;;;;5061831;28;20194;-77
2023/04/05 16:11:31;;;;;;;0.90;0.90;;;15.00;96.10;19.10;101812.00;;;;5060659;28;20233;-67
2023/04/05 16:14:31;;;;;;;0.10;0.10;;;15.30;96.70;19.00;101821.00;;;;5045034;28;20218;-70
2023/04/05 16:17:07;;;;;;;2.10;2.00;;;15.40;96.80;18.80;101821.00;;;;5045913;28;20522;-70
2023/04/05 16:19:33;;;;;;;2.10;2.00;;;15.40;96.20;18.20;101823.00;;;;5044893;28;20187;-69
2023/04/05 16:22:08;;;;;;;0.13;0.13;;;15.10;96.80;18.80;101810.00;;;;5060732;28;20231;-69
2023/04/05 16:24:46;;;;;;;0.60;0.50;;;15.20;96.90;19.20;101797.00;;;;5044376;28;20209;-69
2023/04/05 16:27:37;;;;;;;0.20;0.20;;;15.40;96.90;17.80;101808.00;;;;5060752;28;20186;-70
2023/04/05 16:30:29;;;;;;;0.60;0.60;;;15.20;96.60;17.80;101773.00;;;;5043040;28;20202;-70
2023/04/05 16:33:22;;;;;;;0.10;0.10;;;14.70;97.10;17.90;101803.00;;;;5005406;28;20718;-70
2023/04/05 16:35:51;;;;;;;0.50;0.50;;;14.60;97.70;18.30;101806.00;;;;5057896;28;20687;-70
2023/04/05 16:38:41;;;;;;;0.10;0.10;;;14.70;97.40;18.20;101799.00;;;;5043266;28;20209;-69
2023/04/05 16:41:31;;;;;;;0.10;0.10;;;14.80;96.90;17.90;101806.00;;;;5061770;28;20182;-69
2023/04/05 16:44:20;;;;;;;0.10;0.10;;;14.60;97.10;16.90;101787.00;;;;5060830;28;20190;-70
2023/04/05 16:47:25;;;;;;;0.67;0.67;;;14.10;97.80;17.50;101818.00;;;;5044051;28;20284;-70
2023/04/05 16:50:29;;;;;;;0.20;0.20;;;14.00;98.40;17.90;101813.00;;;;5046219;28;20199;-70
2023/04/05 16:53:18;;;;;;;0.70;0.70;;;14.20;98.20;17.00;101817.00;;;;5054510;28;20209;-69
2023/04/05 16:55:47;;;;;;;0.77;0.77;;;14.40;97.90;16.40;101823.00;;;;5061164;28;21093;-69
2023/04/05 16:58:22;;;;;;;0.87;0.57;;;13.70;98.60;16.20;101829.00;;;;5059767;28;20543;-70
2023/04/05 17:00:47;;;;;;;0.10;0.10;;;13.70;98.50;17.20;101782.00;;;;5056397;28;20181;-70
2023/04/05 17:03:13;;;;;;;0.10;0.10;;;13.70;98.90;17.20;101822.00;;;;5035885;28;20211;-69
2023/04/05 17:05:49;;;;;;;2.50;2.30;;;13.90;99.00;17.30;101813.00;;;;5052411;28;20579;-70
2023/04/05 17:08:15;;;;;;;2.20;2.10;;;13.90;99.10;16.30;101819.00;;;;5040415;28;20162;-69
2023/04/05 17:10:41;;;;;;;0.10;0.10;;;13.70;98.90;16.40;101814.00;;;;5053328;28;20193;-69
2023/04/05 17:13:07;;;;;;;1.37;1.33;;;13.40;99.20;15.80;101821.00;;;;5035199;28;20305;-70
2023/04/05 17:15:33;;;;;;;1.30;0.67;;;13.20;99.10;15.80;101827.00;;;;5052533;28;20283;-70
2023/04/05 17:18:02;;;;;;;2.00;1.90;;;13.10;99.30;16.40;101800.00;;;;5035608;28;20178;-70
2023/04/05 17:21:06;;;;;;;0.10;0.10;;;13.20;99.60;17.60;101807.00;;;;5038894;28;20189;-70
2023/04/05 17:23:32;;;;;;;3.00;1.87;;;13.50;99.60;16.20;101816.00;;;;5048951;28;20182;-70
2023/04/05 17:26:01;;;;;;;0.80;0.80;;;13.50;99.50;16.40;101802.00;;;;5052433;28;20231;-70
2023/04/05 17:28:26;;;;;;;0.73;0.73;;;13.50;99.50;16.50;101815.00;;;;5051435;28;20530;-70
2023/04/05 17:31:34;;;;;;;0.10;0.10;;;13.40;99.60;17.30;101779.00;;;;5052524;28;20189;-70
2023/04/05 17:34:00;;;;;;;0.30;0.30;;;13.70;99.70;17.00;101814.00;;;;5035726;28;20181;-70
2023/04/05 17:36:26;;;;;;;0.90;0.90;;;13.70;99.40;17.30;101785.00;;;;5052417;28;20686;-70
2023/04/05 17:38:53;;;;;;;0.10;0.10;;;13.70;99.70;17.70;101812.00;;;;5052008;28;20197;-70
2023/04/05 17:41:19;;;;;;;0.10;0.10;;;13.80;99.50;17.50;101787.00;;;;5035205;28;20222;-70
2023/04/05 17:44:20;;;;;;;1.13;0.97;;;13.90;99.10;17.10;101814.00;;;;5039017;28;20220;-71
2023/04/05 17:47:08;;;;;;;5.20;5.00;;;13.70;99.40;17.10;101812.00;;;;5052144;28;20182;-70
2023/04/05 17:50:12;;;;;;;0.10;0.10;;;13.50;99.70;16.80;101812.00;;;;5053156;28;20644;-70
2023/04/05 17:52:55;;;;;;;0.10;0.10;;;13.40;99.40;16.90;101810.00;;;;5043581;28;20303;-70
2023/04/05 17:55:39;;;;;;;0.30;0.30;;;13.30;99.30;16.90;101803.00;;;;5051975;28;20199;-70
2023/04/05 17:58:47;;;;;;;0.10;0.10;;;13.30;99.80;17.00;101818.00;;;;5036378;28;20712;-72
2023/04/05 18:01:36;;;;;;;0.20;0.20;;;13.30;99.90;16.90;101809.00;;;;5037949;28;20657;-71
2023/04/05 18:04:09;;;;;;;0.10;0.10;;;13.30;99.90;16.70;101814.00;;;;5022030;28;20196;-74
2023/04/05 18:06:52;;;;;;;0.17;0.17;;;13.10;99.90;16.90;101781.00;;;;5033693;28;20187;-73
2023/04/05 18:09:32;;;;;;;0.10;0.10;;;13.10;99.90;17.40;101790.00;;;;5049452;28;20191;-73
2023/04/05 18:11:58;;;;;;;0.30;0.30;;;13.40;99.80;16.70;101809.00;;;;5050027;28;20207;-75
2023/04/05 18:14:44;;;;;;;0.10;0.10;;;13.30;99.50;17.00;101794.00;;;;5055193;28;20202;-75
2023/04/05 18:18:05;;;;;;;0.10;0.10;;;13.40;99.60;16.90;101820.00;;;;5060086;28;20170;-74
2023/04/05 18:21:10;;;;;;;6.00;5.60;;;13.40;99.50;15.70;101796.00;;;;5038051;28;20634;-74
2023/04/05 18:23:53;;;;;;;1.43;1.33;;;13.10;99.90;15.90;101823.00;;;;5035780;28;20186;-74
2023/04/05 18:26:32;;;;;;;0.20;0.20;;;12.60;99.90;15.70;101818.00;;;;5024449;28;20629;-75
2023/04/05 18:29:03;;;;;;;0.60;0.60;;;12.40;99.90;15.80;101827.00;;;;5049963;28;20688;-74
2023/04/05 18:31:46;;;;;;;0.33;0.33;;;12.40;99.90;15.70;101793.00;;;;5052937;28;20214;-74
2023/04/05 18:34:40;;;;;;;30.43;27.13;;;12.20;99.90;15.00;101844.00;;;;5055210;28;20183;-74
2023/04/05 18:37:26;;;;;;;1.70;1.60;;;12.00;99.90;14.60;101811.00;;;;5057760;28;20651;-74
2023/04/05 18:40:06;;;;;;;0.40;0.40;;;11.80;99.90;14.60;101842.00;;;;5058627;28;20278;-72
2023/04/05 18:42:35;;;;;;;1.70;1.70;;;11.70;99.90;14.80;101845.00;;;;5058615;28;20626;-72
2023/04/05 18:45:02;;;;;;;0.10;0.10;;;11.70;99.90;15.00;101859.00;;;;5054720;28;20183;-76
2023/04/05 18:47:28;;;;;;;0.93;0.93;;;11.70;99.90;14.70;101841.00;;;;5042189;28;20189;-75
2023/04/05 18:49:57;;;;;;;0.10;0.10;;;11.70;99.90;14.90;101849.00;;;;5058896;28;20185;-75
2023/04/05 18:52:26;;;;;;;0.20;0.20;;;11.70;99.90;15.00;101848.00;;;;5060217;28;20232;-76